Ana Sayfa
METAR-TAF:

METAR-TAF

Havaalanları :

Ferit Melen Havalimanı

Van, Türkiye

Enlem: 38-27N, Boylam: 043-19E, yükseklik: 1667 m

Güncel hava durumu gözlemi

Rapor saat 21:50 UTC de 50 dakika önce yapıldı.
Rüzgar doğu/kuzeydoğudan 3 kt
Sıcaklık 1°C
Nem 93%
Basınç 1023 hPa
Görüş mesafesi 10 km veya daha fazla
4000 ft yükseklikte az bulutlu

METAR: LTCI 122150Z 06003KT 9999 FEW040 01/M00 Q1023 NOSIG

Saat: 01:40 (22:40 UTC)

Tahmin

Rapor saat 19:40 UTC de 3 saat ve 0 dakika önce yapıldı.
Ayın 12'si saat 21 UTC'den ayın 13'si saat 06 UTC'ye kadar geçerli Tahmin
Rüzgar doğu/güneydoğudan 8 kt
Görüş mesafesi 10 km veya daha fazla
3500 ft yükseklikte parçalı bulutlu

TAF: LTCI 121940Z 1221/1306 11008KT 9999 SCT035

4.000'den fazla havaalanı için hava durumu gözlemleri ve tahminleri (METAR ve TAF raporları).

Kullanılabilir istasyonlar harita üzerinde sarı ve kırmızı noktalarla gösterilir.

İstasyonun adını görmek için fareyi noktanın üzerinde gezdirin.

Sonrasında hava gözlem ve tahminlerini görmek için tıklayın.

Haritayı değiştirmek için: yaklaştırmak için siyah artı işaretli yeşil düğmeye ve uzaklaştırmak için de eksi işaretli düğmeye hızla tıklayın; bitişik haritalar için yeşil okları kullanın.


METAR-TAF: